Tipitapa, Nicaragua
Current Conditions -  °F | °C
As of 7:00 AM on Thursday 30 Oct 2014 (Local Time) from MNMG Reporting Station
Scattered Clouds Scattered Clouds  
Wind Chill: 79°   Ceiling: Unl
Heat Index: 82°   Visibility: 6mi
Dew Point: 73°   Wind: 5mph
Humidity: 83%   Direction: 160°SSE
Pressure: 29.8"   Gusts: NA
Location:  12.2°N, 86.1°W
Report Text: MNMG 301300Z 16004KT 9999 FEW020 SCT300 26/23 Q1009 A2981 NOSIG
Loading
Personal Weather Stations






























Interactive Weather Map
Tropical Storm Tracking
New forecast layout! Learn more

10-Day Weather Forecast

Advertisements
Track Severe Weather on mobile